Time;durP1;ratioP1;P1;durP2;ratioP2;P2;SDS_P1;SDS_P2;PMS_P1;PMS_P2;Temp;Humidity;BMP_temperature;BMP_pressure;BME280_temperature;BME280_humidity;BME280_pressure;Samples;Min_cycle;Max_cycle;Signal;HPM_P1;HPM_P2
2024/01/27 12:57:10;;;;;;;10.57;4.13;;;9.40;97.30;;;;;;6236580;22;20048;-64
2024/01/27 12:59:56;;;;;;;9.98;4.60;;;9.40;97.10;;;;;;6241409;23;20028;-65
2024/01/27 13:02:43;;;;;;;24.83;5.65;;;9.30;97.10;;;;;;6240583;23;20004;-66
2024/01/27 13:05:29;;;;;;;14.63;4.78;;;9.30;97.00;;;;;;6239702;23;20012;-64
2024/01/27 13:08:15;;;;;;;19.45;4.93;;;9.20;97.00;;;;;;6241946;23;20441;-65
2024/01/27 13:11:02;;;;;;;10.48;4.07;;;9.20;97.00;;;;;;6240289;23;20090;-64
2024/01/27 13:13:48;;;;;;;15.10;5.00;;;9.20;96.90;;;;;;6240511;23;20031;-64
2024/01/27 13:16:34;;;;;;;11.73;3.53;;;9.10;97.00;;;;;;6238411;23;20468;-65
2024/01/27 13:19:20;;;;;;;8.23;4.00;;;9.20;97.00;;;;;;6241524;23;20487;-63
2024/01/27 13:22:06;;;;;;;13.27;4.00;;;9.10;97.00;;;;;;6240314;23;20004;-65
2024/01/27 13:24:52;;;;;;;17.77;5.85;;;9.20;97.10;;;;;;6240662;23;20012;-65
2024/01/27 13:27:38;;;;;;;9.25;4.30;;;9.10;97.10;;;;;;6239931;23;20008;-64
2024/01/27 13:30:25;;;;;;;9.10;3.72;;;9.10;97.20;;;;;;6242345;23;20077;-64
2024/01/27 13:33:11;;;;;;;12.80;4.10;;;9.10;97.20;;;;;;6244038;23;20012;-64
2024/01/27 13:35:57;;;;;;;18.92;5.70;;;9.10;97.20;;;;;;6242290;23;20482;-64
2024/01/27 13:38:43;;;;;;;19.65;7.20;;;9.10;97.20;;;;;;6243507;23;20353;-64
2024/01/27 13:41:29;;;;;;;12.77;4.38;;;9.20;97.30;;;;;;6243508;23;20131;-65
2024/01/27 13:44:15;;;;;;;11.35;4.93;;;9.20;97.40;;;;;;6240941;23;20069;-65
2024/01/27 13:47:02;;;;;;;14.95;5.57;;;9.30;97.50;;;;;;6241021;23;20008;-66
2024/01/27 13:49:48;;;;;;;16.48;4.60;;;9.40;97.50;;;;;;6242592;23;20008;-66
2024/01/27 13:52:34;;;;;;;11.15;4.75;;;9.50;97.40;;;;;;6242037;23;20088;-65
2024/01/27 13:55:21;;;;;;;12.88;4.32;;;9.50;97.40;;;;;;6240105;23;20521;-65
2024/01/27 13:58:07;;;;;;;14.63;5.40;;;9.60;97.30;;;;;;6240147;23;20031;-65
2024/01/27 14:00:52;;;;;;;12.15;5.03;;;9.60;97.30;;;;;;6233850;23;20016;-64
2024/01/27 14:03:38;;;;;;;17.90;5.28;;;9.60;97.30;;;;;;6241238;23;20154;-65
2024/01/27 14:06:24;;;;;;;15.23;5.20;;;9.60;97.30;;;;;;6219768;23;20008;-66
2024/01/27 14:09:10;;;;;;;19.55;5.35;;;9.60;97.30;;;;;;6242676;23;20157;-63
2024/01/27 14:11:56;;;;;;;15.20;4.50;;;9.70;97.30;;;;;;6242095;23;20015;-64
2024/01/27 14:14:43;;;;;;;12.63;4.38;;;9.80;97.30;;;;;;6243006;23;20428;-64
2024/01/27 14:17:30;;;;;;;16.40;4.88;;;9.80;97.20;;;;;;6240649;23;20019;-64
2024/01/27 14:20:16;;;;;;;11.32;4.15;;;9.80;97.20;;;;;;6242889;23;20386;-64
2024/01/27 14:23:02;;;;;;;15.93;5.13;;;9.70;97.00;;;;;;6238319;23;20095;-63
2024/01/27 14:25:48;;;;;;;11.25;3.70;;;9.70;97.10;;;;;;6241531;23;20012;-64
2024/01/27 14:28:35;;;;;;;14.85;5.47;;;9.70;97.10;;;;;;6240015;23;20090;-66
2024/01/27 14:31:21;;;;;;;15.77;4.20;;;9.70;97.20;;;;;;6240829;23;20016;-65
2024/01/27 14:34:09;;;;;;;16.50;6.45;;;9.80;97.10;;;;;;6241993;23;20038;-67
2024/01/27 14:36:55;;;;;;;29.85;4.45;;;9.80;97.00;;;;;;6243403;23;20097;-65
2024/01/27 14:39:42;;;;;;;12.82;5.13;;;9.70;97.00;;;;;;6241167;23;20016;-65
2024/01/27 14:42:28;;;;;;;11.35;3.90;;;9.80;97.30;;;;;;6240323;23;20009;-65
2024/01/27 14:45:14;;;;;;;12.82;4.20;;;9.80;97.30;;;;;;6241266;23;20039;-66
2024/01/27 14:48:00;;;;;;;12.95;4.95;;;9.80;97.30;;;;;;6237560;23;20008;-65
2024/01/27 14:50:48;;;;;;;12.18;4.15;;;9.80;97.10;;;;;;6216914;23;20018;-65
2024/01/27 14:53:34;;;;;;;15.13;4.55;;;9.80;97.00;;;;;;6220082;23;20011;-65
2024/01/27 14:56:20;;;;;;;14.15;4.60;;;9.80;97.00;;;;;;6243315;23;20012;-66
2024/01/27 14:59:07;;;;;;;10.70;3.75;;;9.80;97.00;;;;;;6262948;23;20000;-64
2024/01/27 15:01:53;;;;;;;13.50;4.85;;;9.80;97.00;;;;;;6266784;23;20015;-65
2024/01/27 15:04:39;;;;;;;19.00;5.70;;;9.80;97.00;;;;;;6242082;23;20440;-65
2024/01/27 15:07:29;;;;;;;13.45;5.20;;;9.80;96.90;;;;;;6220488;23;20004;-66
2024/01/27 15:10:15;;;;;;;11.02;3.83;;;9.70;96.80;;;;;;6241363;23;20015;-66
2024/01/27 15:13:01;;;;;;;9.85;3.85;;;9.70;96.90;;;;;;6243262;23;20004;-65
2024/01/27 15:15:47;;;;;;;14.02;5.32;;;9.60;96.90;;;;;;6241659;23;20486;-65
2024/01/27 15:18:34;;;;;;;13.77;4.05;;;9.60;96.90;;;;;;6242614;23;20078;-66
2024/01/27 15:21:20;;;;;;;10.45;3.90;;;9.60;96.90;;;;;;6241601;23;20082;-66
2024/01/27 15:24:06;;;;;;;10.07;4.88;;;9.60;96.90;;;;;;6240844;23;20090;-66
2024/01/27 15:26:53;;;;;;;23.35;6.15;;;9.60;96.90;;;;;;6241415;23;20392;-65
2024/01/27 15:29:39;;;;;;;13.65;4.13;;;9.60;97.00;;;;;;6241016;23;20087;-66
2024/01/27 15:32:27;;;;;;;13.23;3.90;;;9.50;97.00;;;;;;6242659;23;20060;-65
2024/01/27 15:35:13;;;;;;;18.80;5.70;;;9.50;97.00;;;;;;6239352;23;20340;-65
2024/01/27 15:37:59;;;;;;;9.10;4.10;;;9.50;97.00;;;;;;6239810;23;20087;-66
2024/01/27 15:40:45;;;;;;;10.73;4.72;;;9.50;97.00;;;;;;6240635;23;20020;-66
2024/01/27 15:43:31;;;;;;;10.52;4.53;;;9.50;96.90;;;;;;6238850;23;20019;-66
2024/01/27 15:46:17;;;;;;;9.95;4.35;;;9.40;96.90;;;;;;6240502;23;20046;-66
2024/01/27 15:49:03;;;;;;;14.00;5.38;;;9.40;96.90;;;;;;6240838;23;20008;-66
2024/01/27 15:51:49;;;;;;;11.75;4.95;;;9.40;97.00;;;;;;6241134;23;20039;-66
2024/01/27 15:54:35;;;;;;;19.90;5.20;;;9.40;97.00;;;;;;6242478;23;20008;-66
2024/01/27 15:57:22;;;;;;;11.10;3.67;;;9.50;97.10;;;;;;6242188;23;20425;-65
2024/01/27 16:00:11;;;;;;;15.32;5.85;;;9.50;97.10;;;;;;6241328;23;20020;-70
2024/01/27 16:02:56;;;;;;;14.57;5.20;;;9.40;97.10;;;;;;6243044;23;20004;-69
2024/01/27 16:05:42;;;;;;;10.35;4.63;;;9.40;97.10;;;;;;6242336;23;20338;-70
2024/01/27 16:08:28;;;;;;;15.00;4.68;;;9.40;97.00;;;;;;6241167;23;20501;-70
2024/01/27 16:11:14;;;;;;;11.20;4.75;;;9.40;97.10;;;;;;6242300;23;20241;-71
2024/01/27 16:14:00;;;;;;;13.70;4.45;;;9.40;97.10;;;;;;6241820;23;20031;-71
2024/01/27 16:16:46;;;;;;;10.77;4.40;;;9.40;97.10;;;;;;6239580;23;20043;-70
2024/01/27 16:19:32;;;;;;;11.27;5.30;;;9.40;97.10;;;;;;6242629;23;20027;-70
2024/01/27 16:22:22;;;;;;;13.43;4.18;;;9.40;97.10;;;;;;6241875;23;20004;-70
2024/01/27 16:25:08;;;;;;;13.77;4.40;;;9.40;97.10;;;;;;6239417;23;20019;-70
2024/01/27 16:27:54;;;;;;;13.45;4.65;;;9.40;97.10;;;;;;6240495;23;20008;-71
2024/01/27 16:30:40;;;;;;;15.25;4.68;;;9.30;97.00;;;;;;6241427;23;20012;-70
2024/01/27 16:33:26;;;;;;;10.70;5.07;;;9.30;97.00;;;;;;6240172;23;20488;-70
2024/01/27 16:36:12;;;;;;;14.18;4.95;;;9.30;97.00;;;;;;6240681;23;20008;-71
2024/01/27 16:38:58;;;;;;;9.85;4.30;;;9.20;97.00;;;;;;6240553;23;20016;-69
2024/01/27 16:41:45;;;;;;;14.18;3.88;;;9.10;97.00;;;;;;6239592;23;20437;-70
2024/01/27 16:44:31;;;;;;;9.88;4.25;;;9.10;97.00;;;;;;6240012;23;20492;-70
2024/01/27 16:47:18;;;;;;;11.27;3.50;;;9.10;97.00;;;;;;6240357;23;20027;-69
2024/01/27 16:50:04;;;;;;;11.68;4.43;;;9.00;97.00;;;;;;6236673;23;20008;-70
2024/01/27 16:52:50;;;;;;;13.18;3.63;;;8.90;97.00;;;;;;6240857;23;20012;-70
2024/01/27 16:55:38;;;;;;;11.82;3.97;;;8.90;97.10;;;;;;6241413;23;20445;-70
2024/01/27 16:58:23;;;;;;;10.00;4.38;;;8.90;97.30;;;;;;6241970;23;20039;-70
2024/01/27 17:01:09;;;;;;;9.60;3.70;;;8.80;97.00;;;;;;6218686;23;20099;-70
2024/01/27 17:03:55;;;;;;;9.48;4.25;;;8.80;97.10;;;;;;6239627;23;20004;-70
2024/01/27 17:06:41;;;;;;;11.13;4.03;;;8.80;97.10;;;;;;6240029;23;20012;-70
2024/01/27 17:09:28;;;;;;;11.15;5.18;;;8.70;97.00;;;;;;6240658;23;20082;-70
2024/01/27 17:12:14;;;;;;;12.30;5.13;;;8.70;97.10;;;;;;6242263;23;20016;-70
2024/01/27 17:15:00;;;;;;;11.93;5.10;;;8.70;97.10;;;;;;6240970;23;20015;-70
2024/01/27 17:17:46;;;;;;;14.57;5.65;;;8.70;97.10;;;;;;6242327;23;20012;-70
2024/01/27 17:20:31;;;;;;;13.52;5.93;;;8.70;97.20;;;;;;6241827;23;20020;-69
2024/01/27 17:23:18;;;;;;;11.00;4.75;;;8.60;97.20;;;;;;6241467;23;20456;-70
2024/01/27 17:26:04;;;;;;;15.45;4.75;;;8.60;97.10;;;;;;6217170;23;20315;-69
2024/01/27 17:28:50;;;;;;;13.32;4.63;;;8.50;97.10;;;;;;6218913;23;20012;-69
2024/01/27 17:31:36;;;;;;;15.23;5.28;;;8.50;97.10;;;;;;6241611;23;20143;-69
2024/01/27 17:34:22;;;;;;;9.05;3.83;;;8.50;97.10;;;;;;6241544;23;20012;-69
2024/01/27 17:37:07;;;;;;;13.93;4.28;;;8.60;97.20;;;;;;6242143;23;20008;-69
2024/01/27 17:39:53;;;;;;;12.15;4.85;;;8.50;97.20;;;;;;6238950;23;20476;-69
2024/01/27 17:42:40;;;;;;;13.45;4.63;;;8.40;97.20;;;;;;6239273;23;20021;-69
2024/01/27 17:45:27;;;;;;;12.02;5.30;;;8.40;97.20;;;;;;6241112;23;20516;-69
2024/01/27 17:48:13;;;;;;;10.55;5.13;;;8.40;97.20;;;;;;6240162;23;20063;-69
2024/01/27 17:50:59;;;;;;;10.13;4.50;;;8.40;97.20;;;;;;6240134;23;20008;-69
2024/01/27 17:53:46;;;;;;;13.77;4.65;;;8.40;97.20;;;;;;6240449;23;20514;-69
2024/01/27 17:56:33;;;;;;;8.73;3.97;;;8.40;97.20;;;;;;6242080;22;20496;-69
2024/01/27 17:59:19;;;;;;;10.02;4.47;;;8.30;97.20;;;;;;6239241;23;20526;-69
2024/01/27 18:02:05;;;;;;;9.63;3.70;;;8.30;97.20;;;;;;6237994;23;20008;-69
2024/01/27 18:04:52;;;;;;;9.35;3.80;;;8.30;97.20;;;;;;6238398;23;20013;-72
2024/01/27 18:07:38;;;;;;;12.82;4.38;;;8.30;97.20;;;;;;6239091;23;20012;-67
2024/01/27 18:10:24;;;;;;;13.63;5.25;;;8.30;97.30;;;;;;6239153;23;20219;-71
2024/01/27 18:13:11;;;;;;;10.32;5.95;;;8.20;97.20;;;;;;6240295;23;20214;-72
2024/01/27 18:15:58;;;;;;;12.75;4.63;;;8.20;97.30;;;;;;6242020;23;20101;-70
2024/01/27 18:18:44;;;;;;;13.52;5.53;;;8.20;97.30;;;;;;6241925;23;20014;-68
2024/01/27 18:21:30;;;;;;;10.20;5.38;;;8.20;97.30;;;;;;6259197;23;20008;-66
2024/01/27 18:24:17;;;;;;;10.65;4.72;;;8.20;97.30;;;;;;6246208;23;19996;-65
2024/01/27 18:27:03;;;;;;;13.45;5.53;;;8.20;97.30;;;;;;6244576;23;20168;-65
2024/01/27 18:29:50;;;;;;;11.75;5.20;;;8.20;97.40;;;;;;6238340;23;20016;-65
2024/01/27 18:32:36;;;;;;;16.17;7.13;;;8.20;97.40;;;;;;6242040;23;20018;-65
2024/01/27 18:35:22;;;;;;;14.30;6.55;;;8.20;97.50;;;;;;6241122;23;20027;-67
2024/01/27 18:38:08;;;;;;;13.65;7.18;;;8.10;97.40;;;;;;6243153;23;20019;-63
2024/01/27 18:40:54;;;;;;;10.80;6.50;;;8.10;97.40;;;;;;6242379;23;20066;-63
2024/01/27 18:43:40;;;;;;;15.65;6.45;;;8.10;97.50;;;;;;6241796;23;20012;-63
2024/01/27 18:46:26;;;;;;;18.05;6.72;;;8.10;97.50;;;;;;6242845;23;20066;-63
2024/01/27 18:49:15;;;;;;;14.68;6.70;;;8.10;97.50;;;;;;6242694;23;20008;-64
2024/01/27 18:52:04;;;;;;;11.50;5.47;;;8.10;97.50;;;;;;6240285;23;20453;-62
2024/01/27 18:54:50;;;;;;;16.70;5.57;;;8.10;97.50;;;;;;6242251;23;20034;-64
2024/01/27 18:57:35;;;;;;;10.23;5.22;;;8.00;97.50;;;;;;6242632;23;20353;-62
2024/01/27 19:00:21;;;;;;;13.00;5.82;;;8.00;97.60;;;;;;6240643;23;20480;-62
2024/01/27 19:03:08;;;;;;;10.40;4.82;;;8.00;97.60;;;;;;6239946;23;20015;-63
2024/01/27 19:05:54;;;;;;;11.30;5.55;;;8.00;97.60;;;;;;6236612;23;20062;-63
2024/01/27 19:08:41;;;;;;;14.57;5.78;;;7.90;97.60;;;;;;6242412;23;20015;-63
2024/01/27 19:11:27;;;;;;;10.05;5.32;;;7.90;97.60;;;;;;6242786;23;20014;-63
2024/01/27 19:14:13;;;;;;;11.70;5.25;;;7.90;97.70;;;;;;6241088;23;20004;-64
2024/01/27 19:17:01;;;;;;;15.30;6.63;;;7.90;97.70;;;;;;6240818;23;20040;-64
2024/01/27 19:19:47;;;;;;;12.40;4.93;;;7.90;97.70;;;;;;6240734;23;20016;-63
2024/01/27 19:22:33;;;;;;;11.50;5.75;;;7.90;97.70;;;;;;6238357;23;20031;-62
2024/01/27 19:25:20;;;;;;;15.50;5.10;;;7.80;97.70;;;;;;6239588;23;20015;-63
2024/01/27 19:28:06;;;;;;;9.43;4.43;;;7.80;97.70;;;;;;6241042;23;20014;-63
2024/01/27 19:30:52;;;;;;;12.02;5.43;;;7.80;97.80;;;;;;6240766;23;20012;-64
2024/01/27 19:33:37;;;;;;;10.63;4.57;;;7.70;97.80;;;;;;6240338;23;20015;-63
2024/01/27 19:36:23;;;;;;;8.98;5.25;;;7.70;97.80;;;;;;6240441;23;20008;-63
2024/01/27 19:39:12;;;;;;;17.00;5.28;;;7.70;97.90;;;;;;6235486;23;20020;-62
2024/01/27 19:41:58;;;;;;;9.65;4.93;;;7.60;97.90;;;;;;6241529;23;20004;-63
2024/01/27 19:44:44;;;;;;;9.55;5.45;;;7.60;97.90;;;;;;6241172;23;20453;-63
2024/01/27 19:47:30;;;;;;;15.75;6.38;;;7.50;98.00;;;;;;6240935;23;20012;-62
2024/01/27 19:50:18;;;;;;;12.75;6.57;;;7.50;98.00;;;;;;6240686;23;20108;-63
2024/01/27 19:53:09;;;;;;;11.77;5.57;;;7.50;98.10;;;;;;6239939;23;20466;-62
2024/01/27 19:55:55;;;;;;;13.18;6.18;;;7.50;98.10;;;;;;6241330;23;20444;-62
2024/01/27 19:58:41;;;;;;;12.35;6.72;;;7.50;98.10;;;;;;6237514;23;20340;-62
2024/01/27 20:01:27;;;;;;;13.73;5.95;;;7.50;98.10;;;;;;6240276;23;20444;-63
2024/01/27 20:04:13;;;;;;;13.50;5.63;;;7.50;98.20;;;;;;6219452;23;20102;-63
2024/01/27 20:07:00;;;;;;;10.73;5.80;;;7.40;98.10;;;;;;6240683;23;20015;-63
2024/01/27 20:09:46;;;;;;;14.77;5.35;;;7.40;98.20;;;;;;6242640;23;20349;-63
2024/01/27 20:12:32;;;;;;;12.32;5.15;;;7.40;98.20;;;;;;6241613;23;20015;-63
2024/01/27 20:15:18;;;;;;;13.63;5.65;;;7.30;98.20;;;;;;6238971;23;20016;-63
2024/01/27 20:18:04;;;;;;;9.45;4.85;;;7.40;98.30;;;;;;6240838;23;20078;-63
2024/01/27 20:20:53;;;;;;;11.82;5.53;;;7.30;98.30;;;;;;6238612;23;20112;-62
2024/01/27 20:23:39;;;;;;;14.80;6.13;;;7.30;98.30;;;;;;6240407;23;20086;-63
2024/01/27 20:26:25;;;;;;;11.60;5.97;;;7.30;98.30;;;;;;6242230;23;20008;-64
2024/01/27 20:29:11;;;;;;;17.15;6.25;;;7.30;98.40;;;;;;6240106;23;20015;-64
2024/01/27 20:31:59;;;;;;;13.38;6.28;;;7.30;98.40;;;;;;6238157;23;20445;-63
2024/01/27 20:34:45;;;;;;;11.77;4.93;;;7.30;98.50;;;;;;6239384;23;20036;-64
2024/01/27 20:37:30;;;;;;;12.70;5.05;;;7.30;98.50;;;;;;6241825;23;20008;-64
2024/01/27 20:40:17;;;;;;;14.98;6.22;;;7.30;98.50;;;;;;6238210;23;20110;-64
2024/01/27 20:43:06;;;;;;;15.93;5.43;;;7.30;98.50;;;;;;6240156;23;20008;-64
2024/01/27 20:45:52;;;;;;;11.43;5.38;;;7.30;98.50;;;;;;6239259;23;20008;-63
2024/01/27 20:48:38;;;;;;;14.90;5.32;;;7.30;98.60;;;;;;6238845;23;20083;-64
2024/01/27 20:51:24;;;;;;;17.77;5.63;;;7.20;98.60;;;;;;6238754;23;20016;-64
2024/01/27 20:54:10;;;;;;;12.88;6.07;;;7.20;98.60;;;;;;6241611;23;20004;-62
2024/01/27 20:56:56;;;;;;;14.45;5.65;;;7.20;98.60;;;;;;6219602;23;20024;-64
2024/01/27 20:59:42;;;;;;;12.48;4.95;;;7.20;98.60;;;;;;6240666;23;20023;-62
2024/01/27 21:02:28;;;;;;;14.63;4.78;;;7.20;98.60;;;;;;6239116;23;20015;-64
2024/01/27 21:05:14;;;;;;;16.25;5.95;;;7.20;98.70;;;;;;6240566;23;20023;-65
2024/01/27 21:08:00;;;;;;;17.50;5.72;;;7.10;98.60;;;;;;6219103;23;20013;-64
2024/01/27 21:10:45;;;;;;;19.88;7.28;;;7.20;98.70;;;;;;6241677;23;20115;-65
2024/01/27 21:13:31;;;;;;;15.27;5.85;;;7.10;98.70;;;;;;6241326;23;20476;-65
2024/01/27 21:16:18;;;;;;;17.33;7.15;;;7.10;98.70;;;;;;6241900;23;20019;-65
2024/01/27 21:19:04;;;;;;;15.65;7.25;;;7.10;98.70;;;;;;6239235;23;20157;-65
2024/01/27 21:21:50;;;;;;;17.35;7.15;;;7.10;98.70;;;;;;6241787;23;20341;-64
2024/01/27 21:24:36;;;;;;;13.82;5.70;;;7.10;98.70;;;;;;6240423;23;20008;-63
2024/01/27 21:27:22;;;;;;;11.65;6.15;;;7.10;98.70;;;;;;6241440;23;20008;-63
2024/01/27 21:30:08;;;;;;;13.35;5.15;;;7.10;98.70;;;;;;6238319;23;20008;-63
2024/01/27 21:32:55;;;;;;;16.33;5.38;;;7.10;98.70;;;;;;6241841;23;20008;-62
2024/01/27 21:35:41;;;;;;;13.43;4.95;;;7.10;98.80;;;;;;6239460;23;20008;-63
2024/01/27 21:38:27;;;;;;;14.10;5.93;;;7.10;98.80;;;;;;6240424;23;20008;-64
2024/01/27 21:41:13;;;;;;;12.40;5.47;;;7.10;98.80;;;;;;6240044;23;20031;-64
2024/01/27 21:43:59;;;;;;;14.40;5.22;;;7.10;98.80;;;;;;6241654;23;20016;-64
2024/01/27 21:46:45;;;;;;;17.60;5.55;;;7.00;98.80;;;;;;6241846;23;20008;-64
2024/01/27 21:49:31;;;;;;;14.48;5.00;;;7.00;98.80;;;;;;6244021;23;20011;-63
2024/01/27 21:52:17;;;;;;;20.02;6.28;;;7.00;98.80;;;;;;6262387;23;20080;-63
2024/01/27 21:55:03;;;;;;;16.52;5.25;;;7.00;98.90;;;;;;6256041;23;20013;-63
2024/01/27 21:57:49;;;;;;;13.43;6.30;;;7.00;99.10;;;;;;6241905;23;20538;-63
2024/01/27 22:00:35;;;;;;;13.55;5.18;;;6.90;98.90;;;;;;6242084;23;20020;-63
2024/01/27 22:03:21;;;;;;;15.00;5.85;;;6.90;98.90;;;;;;6242576;23;20035;-63
2024/01/27 22:06:07;;;;;;;16.92;5.93;;;6.90;98.90;;;;;;6243599;23;20016;-63
2024/01/27 22:08:53;;;;;;;15.10;5.63;;;6.90;98.90;;;;;;6219800;23;20091;-63
2024/01/27 22:11:43;;;;;;;16.90;5.90;;;6.90;98.90;;;;;;6242947;23;20019;-63
2024/01/27 22:14:29;;;;;;;16.00;5.82;;;6.90;99.20;;;;;;6243461;23;20409;-63
2024/01/27 22:17:15;;;;;;;14.52;5.63;;;6.90;99.00;;;;;;6241630;23;20015;-63
2024/01/27 22:20:01;;;;;;;13.05;5.53;;;6.90;99.00;;;;;;6241190;23;20050;-63
2024/01/27 22:22:47;;;;;;;11.88;4.80;;;6.90;99.00;;;;;;6243304;23;20328;-63
2024/01/27 22:25:34;;;;;;;15.63;5.18;;;6.90;99.00;;;;;;6241446;23;20344;-64
2024/01/27 22:28:20;;;;;;;16.95;6.90;;;6.90;99.00;;;;;;6242747;23;20007;-64
2024/01/27 22:31:06;;;;;;;11.25;5.53;;;6.90;99.00;;;;;;6241047;23;20009;-63
2024/01/27 22:33:52;;;;;;;12.60;4.90;;;6.90;99.00;;;;;;6241442;23;20012;-63
2024/01/27 22:36:38;;;;;;;8.98;4.90;;;6.90;99.00;;;;;;6241575;23;20004;-65
2024/01/27 22:39:24;;;;;;;14.82;6.00;;;6.90;99.00;;;;;;6241428;23;20023;-65
2024/01/27 22:42:10;;;;;;;17.55;4.88;;;6.90;99.00;;;;;;6243865;23;20127;-65
2024/01/27 22:44:57;;;;;;;12.80;4.47;;;6.90;99.10;;;;;;6242611;23;20022;-65
2024/01/27 22:47:42;;;;;;;16.13;6.07;;;6.80;99.00;;;;;;6241514;23;20107;-65
2024/01/27 22:50:28;;;;;;;14.85;5.20;;;6.90;99.00;;;;;;6238805;23;20437;-65
2024/01/27 22:53:15;;;;;;;11.38;4.47;;;6.90;99.00;;;;;;6241634;23;20373;-64
2024/01/27 22:56:02;;;;;;;16.35;6.35;;;6.90;99.00;;;;;;6242382;23;20020;-64
2024/01/27 22:58:47;;;;;;;13.27;4.85;;;6.90;99.00;;;;;;6241841;23;20100;-64
2024/01/27 23:01:33;;;;;;;13.18;5.68;;;6.90;99.10;;;;;;6240714;23;20016;-64
2024/01/27 23:04:19;;;;;;;8.00;4.57;;;6.90;99.10;;;;;;6240011;23;20020;-65
2024/01/27 23:07:05;;;;;;;9.40;4.93;;;6.90;99.10;;;;;;6242559;23;20012;-65
2024/01/27 23:09:51;;;;;;;13.32;5.32;;;6.90;99.10;;;;;;6241669;23;20042;-64
2024/01/27 23:12:37;;;;;;;13.13;4.80;;;7.00;99.10;;;;;;6241698;23;20008;-64
2024/01/27 23:15:24;;;;;;;12.43;5.00;;;6.90;99.00;;;;;;6243098;23;20004;-65
2024/01/27 23:18:10;;;;;;;12.18;5.50;;;6.90;99.00;;;;;;6241188;23;20020;-65
2024/01/27 23:20:55;;;;;;;11.45;5.57;;;6.90;99.00;;;;;;6242370;23;20047;-65
2024/01/27 23:23:42;;;;;;;11.38;5.68;;;6.90;99.00;;;;;;6242890;23;20095;-65
2024/01/27 23:26:28;;;;;;;13.52;5.32;;;6.90;99.00;;;;;;6219957;23;20018;-65
2024/01/27 23:29:14;;;;;;;11.77;5.78;;;6.90;99.00;;;;;;6240816;23;20139;-65
2024/01/27 23:32:00;;;;;;;13.90;5.50;;;6.90;99.00;;;;;;6242265;23;20020;-65
2024/01/27 23:34:46;;;;;;;16.10;7.50;;;6.80;99.00;;;;;;6240151;23;20013;-64
2024/01/27 23:37:31;;;;;;;14.43;5.85;;;6.80;98.90;;;;;;6240560;23;20264;-64
2024/01/27 23:40:17;;;;;;;9.55;5.30;;;6.80;98.90;;;;;;6239706;23;20025;-64
2024/01/27 23:43:04;;;;;;;9.35;5.57;;;6.80;98.90;;;;;;6241224;23;20334;-64
2024/01/27 23:45:49;;;;;;;16.33;6.32;;;6.80;98.90;;;;;;6240822;23;20154;-63
2024/01/27 23:48:35;;;;;;;17.20;8.48;;;6.80;98.90;;;;;;6242069;23;20008;-64
2024/01/27 23:51:22;;;;;;;10.95;6.00;;;6.80;98.90;;;;;;6241926;23;20012;-64
2024/01/27 23:54:12;;;;;;;13.43;5.75;;;6.80;98.90;;;;;;6240214;23;20074;-64
2024/01/27 23:56:58;;;;;;;12.57;5.80;;;6.70;98.90;;;;;;6240872;23;20180;-64
2024/01/27 23:59:48;;;;;;;14.38;5.10;;;6.80;99.00;;;;;;6242610;23;20020;-64
